Time;durP1;ratioP1;P1;durP2;ratioP2;P2;SDS_P1;SDS_P2;PMS_P1;PMS_P2;Temp;Humidity;BMP_temperature;BMP_pressure;BME280_temperature;BME280_humidity;BME280_pressure;Samples;Min_cycle;Max_cycle;Signal;HPM_P1;HPM_P2
2021/03/08 00:01:37;;;;;;;23.83;13.40;;;5.60;99.90;;;;;;4055090;29;20256;-89
2021/03/08 00:03:38;;;;;;;26.57;13.50;;;5.80;99.90;;;;;;4055150;29;20217;-91
2021/03/08 00:05:39;;;;;;;22.23;13.30;;;6.00;99.90;;;;;;4070716;29;20230;-90
2021/03/08 00:07:41;;;;;;;22.53;12.73;;;6.00;99.90;;;;;;4054985;29;20328;-90
2021/03/08 00:09:41;;;;;;;20.70;13.00;;;6.10;99.90;;;;;;4070851;29;20215;-90
2021/03/08 00:11:42;;;;;;;20.80;12.97;;;6.30;99.90;;;;;;4070538;29;20204;-90
2021/03/08 00:13:43;;;;;;;26.00;12.60;;;6.20;99.90;;;;;;4054973;29;20625;-89
2021/03/08 00:15:43;;;;;;;23.20;13.33;;;6.10;99.90;;;;;;4070775;29;20589;-90
2021/03/08 00:17:45;;;;;;;24.63;12.87;;;5.90;99.90;;;;;;4054986;29;20181;-94
2021/03/08 00:19:45;;;;;;;21.77;12.87;;;5.70;99.90;;;;;;4054995;29;20205;-91
2021/03/08 00:21:46;;;;;;;22.00;13.07;;;5.60;99.90;;;;;;4070780;29;20195;-90
2021/03/08 00:23:47;;;;;;;21.20;12.70;;;5.90;99.90;;;;;;4054942;29;20177;-90
2021/03/08 00:25:47;;;;;;;30.47;13.03;;;6.40;99.90;;;;;;4054898;29;20182;-90
2021/03/08 00:27:48;;;;;;;24.00;14.13;;;6.50;99.90;;;;;;4054995;29;20664;-91
2021/03/08 00:29:49;;;;;;;22.47;13.33;;;6.20;99.90;;;;;;4054758;29;20208;-90
2021/03/08 00:31:49;;;;;;;23.57;13.43;;;5.90;99.90;;;;;;4054996;29;20189;-91
2021/03/08 00:33:50;;;;;;;23.37;13.17;;;5.80;99.90;;;;;;4054335;29;20177;-90
2021/03/08 00:35:51;;;;;;;21.10;12.57;;;6.20;99.90;;;;;;4054809;29;20189;-90
2021/03/08 00:37:51;;;;;;;20.97;13.00;;;6.60;99.90;;;;;;4054604;29;20741;-90
2021/03/08 00:39:52;;;;;;;25.10;13.70;;;6.40;99.90;;;;;;4054465;29;20244;-89
2021/03/08 00:41:53;;;;;;;25.80;14.17;;;6.60;99.90;;;;;;4054634;29;20196;-90
2021/03/08 00:43:54;;;;;;;26.83;14.00;;;6.90;99.90;;;;;;4054659;29;20637;-91
2021/03/08 00:45:54;;;;;;;24.33;14.20;;;6.80;99.90;;;;;;4070056;29;20240;-92
2021/03/08 00:47:55;;;;;;;27.60;14.57;;;6.70;99.90;;;;;;4069969;29;20578;-90
2021/03/08 00:49:56;;;;;;;26.07;14.27;;;6.90;99.90;;;;;;4054399;29;20215;-92
2021/03/08 00:51:57;;;;;;;25.93;14.30;;;7.00;99.90;;;;;;4054228;29;20232;-91
2021/03/08 00:53:58;;;;;;;22.23;13.73;;;6.60;99.90;;;;;;4054361;29;20189;-91
2021/03/08 00:55:59;;;;;;;26.47;14.57;;;6.00;99.90;;;;;;4054513;29;20192;-92
2021/03/08 00:57:59;;;;;;;22.30;13.57;;;5.60;99.90;;;;;;4054193;29;20576;-90
2021/03/08 01:00:01;;;;;;;23.73;14.30;;;5.20;99.90;;;;;;4085579;29;20212;-92
2021/03/08 01:02:07;;;;;;;23.53;13.50;;;4.90;99.90;;;;;;4054965;29;20185;-91
2021/03/08 01:04:09;;;;;;;21.67;13.43;;;4.90;99.90;;;;;;4054258;29;20601;-90
2021/03/08 01:06:09;;;;;;;21.30;13.70;;;4.80;99.90;;;;;;4054155;29;20209;-91
2021/03/08 01:08:12;;;;;;;25.33;13.93;;;4.80;99.90;;;;;;4054341;29;20613;-91
2021/03/08 01:10:19;;;;;;;23.37;13.27;;;4.70;99.90;;;;;;4054240;29;20260;-91
2021/03/08 01:12:21;;;;;;;23.33;14.00;;;4.80;99.90;;;;;;4054165;29;20252;-92
2021/03/08 01:14:26;;;;;;;21.90;13.50;;;4.90;99.90;;;;;;4038893;29;20190;-90
2021/03/08 01:16:27;;;;;;;23.63;13.63;;;4.70;99.90;;;;;;4038411;29;20185;-91
2021/03/08 01:18:27;;;;;;;29.37;14.23;;;4.60;99.90;;;;;;4053913;29;20217;-91
2021/03/08 01:20:28;;;;;;;24.13;12.87;;;4.60;99.90;;;;;;4038360;29;20203;-91
2021/03/08 01:22:29;;;;;;;21.43;12.67;;;4.60;99.90;;;;;;4038496;29;20186;-92
2021/03/08 01:24:30;;;;;;;24.43;13.27;;;4.50;99.90;;;;;;4038307;29;20189;-91
2021/03/08 01:26:31;;;;;;;26.40;13.13;;;4.50;99.90;;;;;;4038356;29;20185;-90
2021/03/08 01:28:32;;;;;;;22.60;12.73;;;4.40;99.90;;;;;;4053811;29;20218;-90
2021/03/08 01:30:39;;;;;;;23.20;12.73;;;4.40;99.90;;;;;;4038285;29;20730;-92
2021/03/08 01:32:40;;;;;;;24.20;13.60;;;4.30;99.90;;;;;;4038486;29;20191;-91
2021/03/08 01:34:40;;;;;;;23.63;13.37;;;4.30;99.90;;;;;;4053812;29;20185;-91
2021/03/08 01:36:41;;;;;;;25.17;13.13;;;4.30;99.90;;;;;;4038365;29;20178;-94
2021/03/08 01:38:42;;;;;;;20.57;13.63;;;4.20;99.90;;;;;;4053663;29;20600;-90
2021/03/08 01:40:43;;;;;;;23.80;14.10;;;4.20;99.90;;;;;;4038264;29;20780;-90
2021/03/08 01:42:44;;;;;;;26.80;13.77;;;4.00;99.90;;;;;;4038346;29;20253;-90
2021/03/08 01:44:44;;;;;;;23.13;13.73;;;4.00;99.90;;;;;;4053535;29;20189;-90
2021/03/08 01:46:46;;;;;;;24.17;13.37;;;4.00;99.90;;;;;;4038064;29;20216;-90
2021/03/08 01:48:46;;;;;;;22.53;13.47;;;3.90;99.90;;;;;;4038335;29;20193;-90
2021/03/08 01:52:58;;;;;;;22.67;13.37;;;4.00;99.90;;;;;;4068032;29;20216;-90
2021/03/08 01:54:59;;;;;;;26.10;13.80;;;3.90;99.90;;;;;;4053443;29;20184;-91
2021/03/08 01:57:00;;;;;;;23.87;13.57;;;3.90;99.90;;;;;;4053420;29;20181;-91
2021/03/08 01:59:01;;;;;;;25.73;14.40;;;3.90;99.90;;;;;;4053760;29;20263;-96
2021/03/08 02:01:03;;;;;;;23.87;13.60;;;3.90;99.90;;;;;;4038017;29;20186;-90
2021/03/08 02:03:04;;;;;;;25.90;14.37;;;3.80;99.90;;;;;;4038070;29;20265;-90
2021/03/08 02:05:07;;;;;;;25.63;14.07;;;3.80;99.90;;;;;;4038119;29;20186;-91
2021/03/08 02:07:09;;;;;;;26.10;14.00;;;3.80;99.90;;;;;;4038201;29;20189;-90
2021/03/08 02:09:09;;;;;;;31.60;14.87;;;3.80;99.90;;;;;;4037984;29;20197;-91
2021/03/08 02:11:10;;;;;;;28.63;15.73;;;3.70;99.90;;;;;;4053768;29;20541;-90
2021/03/08 02:13:41;;;;;;;28.23;14.90;;;3.70;99.90;;;;;;4038835;29;20188;-90
2021/03/08 02:16:00;;;;;;;27.30;14.70;;;3.70;99.90;;;;;;4038011;29;20669;-90
2021/03/08 02:18:05;;;;;;;27.53;15.40;;;3.60;99.90;;;;;;4038064;29;20224;-90
2021/03/08 02:20:41;;;;;;;28.50;15.47;;;3.50;99.90;;;;;;4037698;29;20225;-91
2021/03/08 02:23:04;;;;;;;27.73;15.70;;;3.60;99.90;;;;;;4038124;29;20296;-90
2021/03/08 02:25:04;;;;;;;29.53;15.23;;;3.60;99.90;;;;;;4037834;29;20190;-91
2021/03/08 02:27:43;;;;;;;29.43;15.23;;;3.60;99.90;;;;;;4037875;29;20218;-91
2021/03/08 02:30:27;;;;;;;30.53;16.30;;;3.40;99.90;;;;;;4037805;29;20217;-96
2021/03/08 02:32:45;;;;;;;31.23;16.10;;;3.40;99.90;;;;;;4037665;29;20189;-91
2021/03/08 02:34:55;;;;;;;27.17;15.93;;;3.30;99.90;;;;;;4037669;29;20193;-91
2021/03/08 02:37:21;;;;;;;31.03;15.90;;;3.30;99.90;;;;;;4037726;29;20182;-90
2021/03/08 02:39:32;;;;;;;32.70;16.87;;;3.30;99.90;;;;;;4038053;29;20221;-91
2021/03/08 02:41:34;;;;;;;32.43;16.47;;;3.30;99.90;;;;;;4037841;29;20541;-91
2021/03/08 02:43:38;;;;;;;30.97;16.80;;;3.30;99.90;;;;;;4053116;29;20571;-90
2021/03/08 02:45:41;;;;;;;28.20;16.33;;;3.30;99.90;;;;;;4037991;29;20232;-91
2021/03/08 02:47:46;;;;;;;30.77;17.37;;;3.20;99.90;;;;;;4037661;29;20182;-91
2021/03/08 02:49:49;;;;;;;29.53;16.83;;;3.20;99.90;;;;;;4037594;29;20579;-91
2021/03/08 02:52:08;;;;;;;36.30;17.93;;;3.10;99.90;;;;;;4037418;29;20217;-90
2021/03/08 02:54:11;;;;;;;32.43;17.43;;;3.00;99.90;;;;;;4037523;29;20665;-91
2021/03/08 02:56:16;;;;;;;33.40;18.00;;;2.90;99.90;;;;;;4038239;29;20557;-90
2021/03/08 02:58:19;;;;;;;33.97;17.53;;;2.90;99.90;;;;;;4039483;29;20251;-91
2021/03/08 03:00:20;;;;;;;32.67;17.90;;;3.00;99.90;;;;;;4040589;29;20213;-90
2021/03/08 03:02:23;;;;;;;32.43;16.60;;;3.00;99.90;;;;;;4040967;29;20186;-91
2021/03/08 03:04:24;;;;;;;35.40;17.43;;;3.00;99.90;;;;;;4040544;29;20186;-90
2021/03/08 03:06:30;;;;;;;33.40;16.77;;;3.00;99.90;;;;;;4056086;29;20213;-96
2021/03/08 03:08:33;;;;;;;33.67;17.17;;;3.00;99.90;;;;;;4040426;29;20635;-91
2021/03/08 03:10:35;;;;;;;32.40;17.20;;;2.90;99.90;;;;;;4041065;29;20213;-91
2021/03/08 03:12:36;;;;;;;30.23;16.80;;;2.90;99.90;;;;;;4056816;29;20195;-91
2021/03/08 03:14:40;;;;;;;31.57;16.43;;;2.90;99.90;;;;;;4040932;29;20254;-91
2021/03/08 03:16:43;;;;;;;29.83;16.70;;;2.90;99.90;;;;;;4040350;29;20185;-90
2021/03/08 03:18:53;;;;;;;33.37;17.33;;;2.90;99.90;;;;;;4055539;29;20229;-91
2021/03/08 03:20:56;;;;;;;35.57;17.60;;;3.00;99.90;;;;;;4055869;29;20223;-91
2021/03/08 03:22:58;;;;;;;31.53;17.10;;;2.90;99.90;;;;;;4040276;29;20272;-90
2021/03/08 03:25:00;;;;;;;32.23;18.40;;;2.90;99.90;;;;;;4041133;29;20213;-91
2021/03/08 03:27:05;;;;;;;36.20;18.97;;;2.80;99.90;;;;;;4040734;29;20722;-91
2021/03/08 03:29:09;;;;;;;33.30;18.10;;;2.80;99.90;;;;;;4041476;29;20190;-96
2021/03/08 03:31:10;;;;;;;33.27;17.63;;;2.80;99.90;;;;;;4040534;29;20192;-91
2021/03/08 03:33:13;;;;;;;37.27;19.10;;;2.80;99.90;;;;;;4041493;29;20190;-91
2021/03/08 03:35:15;;;;;;;35.10;18.40;;;2.80;99.90;;;;;;4040989;29;20268;-91
2021/03/08 03:37:19;;;;;;;34.97;18.50;;;2.80;99.90;;;;;;4041020;29;20219;-91
2021/03/08 03:39:20;;;;;;;35.23;20.13;;;2.70;99.90;;;;;;4039927;29;20229;-90
2021/03/08 03:41:21;;;;;;;35.60;19.53;;;2.70;99.90;;;;;;4039885;29;20197;-90
2021/03/08 03:43:21;;;;;;;33.40;18.60;;;2.80;99.90;;;;;;4055443;29;20188;-90
2021/03/08 03:45:23;;;;;;;37.60;19.47;;;2.80;99.90;;;;;;4041508;29;20182;-91
2021/03/08 03:47:24;;;;;;;36.97;18.93;;;2.80;99.90;;;;;;4040057;29;20205;-90
2021/03/08 03:49:25;;;;;;;34.27;18.73;;;2.70;99.90;;;;;;4056194;29;20205;-90
2021/03/08 03:51:25;;;;;;;45.23;20.20;;;2.70;99.90;;;;;;4039870;29;20243;-92
2021/03/08 03:53:26;;;;;;;43.43;20.50;;;2.70;99.90;;;;;;4057701;29;20189;-90
2021/03/08 03:55:28;;;;;;;37.80;19.27;;;2.70;99.90;;;;;;4039904;29;20182;-91
2021/03/08 03:57:56;;;;;;;40.57;20.37;;;2.70;99.90;;;;;;4041547;29;20189;-91
2021/03/08 04:00:00;;;;;;;39.80;20.30;;;2.80;99.90;;;;;;4030214;29;20229;-90
2021/03/08 04:02:07;;;;;;;37.77;20.23;;;2.70;99.90;;;;;;4039953;29;20189;-90
2021/03/08 04:04:18;;;;;;;37.57;20.87;;;2.70;99.90;;;;;;4039620;29;20186;-91
2021/03/08 04:06:20;;;;;;;40.80;20.77;;;2.70;99.90;;;;;;4054892;29;20193;-90
2021/03/08 04:08:24;;;;;;;39.40;20.73;;;2.60;99.90;;;;;;4054669;29;20185;-91
2021/03/08 04:10:26;;;;;;;41.33;20.27;;;2.60;99.90;;;;;;4072539;29;20220;-90
2021/03/08 04:12:33;;;;;;;38.63;20.37;;;2.60;99.90;;;;;;4055191;29;20236;-90
2021/03/08 04:14:35;;;;;;;40.10;20.40;;;2.60;99.90;;;;;;4055049;29;20196;-91
2021/03/08 04:16:40;;;;;;;37.07;20.93;;;2.50;99.90;;;;;;4055299;29;20192;-90
2021/03/08 04:18:43;;;;;;;39.03;20.53;;;2.40;99.90;;;;;;4055293;29;20316;-90
2021/03/08 04:20:45;;;;;;;37.37;20.63;;;2.50;99.90;;;;;;4055167;29;20249;-90
2021/03/08 04:22:51;;;;;;;36.43;20.33;;;2.50;99.90;;;;;;4054989;29;20260;-90
2021/03/08 04:24:58;;;;;;;38.27;20.20;;;2.40;99.90;;;;;;4055126;29;20272;-90
2021/03/08 04:27:05;;;;;;;38.27;18.97;;;2.30;99.90;;;;;;4054950;29;20671;-90
2021/03/08 04:29:08;;;;;;;36.57;20.00;;;2.20;99.90;;;;;;4054734;29;20720;-91
2021/03/08 04:31:11;;;;;;;38.53;20.23;;;2.10;99.90;;;;;;4054615;29;20193;-91
2021/03/08 04:33:13;;;;;;;42.50;20.47;;;2.20;99.90;;;;;;4054839;29;20193;-91
2021/03/08 04:35:14;;;;;;;39.17;20.77;;;2.30;99.90;;;;;;4055695;29;20208;-91
2021/03/08 04:37:16;;;;;;;40.73;21.77;;;2.30;99.90;;;;;;4054790;29;20217;-92
2021/03/08 04:39:17;;;;;;;37.80;20.97;;;2.30;99.90;;;;;;4054504;29;20229;-90
2021/03/08 04:41:18;;;;;;;42.43;20.60;;;2.40;99.90;;;;;;4054835;29;20221;-91
2021/03/08 04:43:20;;;;;;;40.37;21.57;;;2.50;99.90;;;;;;4070353;29;20183;-91
2021/03/08 04:45:22;;;;;;;41.67;22.30;;;2.40;99.90;;;;;;4055708;29;20276;-90
2021/03/08 04:47:23;;;;;;;40.07;21.50;;;2.50;99.90;;;;;;4054633;29;20628;-91
2021/03/08 04:49:23;;;;;;;44.27;22.30;;;2.30;99.90;;;;;;4055692;29;20212;-90
2021/03/08 04:51:27;;;;;;;38.43;21.37;;;2.30;99.90;;;;;;4069705;29;20719;-91
2021/03/08 04:53:28;;;;;;;38.93;21.03;;;2.40;99.90;;;;;;4054569;29;20582;-91
2021/03/08 04:55:30;;;;;;;43.23;22.53;;;2.40;99.90;;;;;;4056264;29;20196;-91
2021/03/08 04:57:33;;;;;;;48.20;22.40;;;2.50;99.90;;;;;;4057289;29;20205;-91
2021/03/08 04:59:34;;;;;;;43.50;22.03;;;2.50;99.90;;;;;;4041207;29;20297;-91
2021/03/08 05:01:36;;;;;;;47.60;22.13;;;2.50;99.90;;;;;;4055291;29;20193;-90
2021/03/08 05:03:38;;;;;;;43.43;22.80;;;2.60;99.90;;;;;;4039768;29;20193;-91
2021/03/08 05:05:39;;;;;;;48.03;23.53;;;2.50;99.90;;;;;;4039305;29;20188;-91
2021/03/08 05:07:42;;;;;;;47.97;22.70;;;2.50;99.90;;;;;;4039717;29;20186;-91
2021/03/08 05:09:44;;;;;;;42.37;22.33;;;2.60;99.90;;;;;;4039277;29;20221;-92
2021/03/08 05:11:46;;;;;;;42.60;22.23;;;2.70;99.90;;;;;;4039401;29;20582;-90
2021/03/08 05:13:49;;;;;;;50.63;21.77;;;2.60;99.90;;;;;;4042270;29;20182;-91
2021/03/08 05:15:53;;;;;;;41.47;21.80;;;2.60;99.90;;;;;;4039860;29;20224;-91
2021/03/08 05:17:56;;;;;;;57.27;22.43;;;2.70;99.90;;;;;;4043577;29;20181;-91
2021/03/08 05:19:59;;;;;;;52.40;22.77;;;2.80;99.90;;;;;;4041826;29;20242;-91
2021/03/08 05:22:00;;;;;;;47.43;23.50;;;2.80;99.90;;;;;;4042725;29;20206;-90
2021/03/08 05:24:04;;;;;;;48.67;23.50;;;2.90;99.90;;;;;;4028159;29;20218;-91
2021/03/08 05:26:05;;;;;;;43.23;22.83;;;2.90;99.90;;;;;;4042823;29;20197;-91
2021/03/08 05:28:08;;;;;;;46.10;22.93;;;2.90;99.90;;;;;;4058614;29;20200;-91
2021/03/08 05:30:14;;;;;;;47.40;24.37;;;2.90;99.90;;;;;;4044694;29;20732;-91
2021/03/08 05:32:22;;;;;;;88.77;23.53;;;3.00;99.90;;;;;;4043014;29;20193;-91
2021/03/08 05:34:25;;;;;;;46.33;23.23;;;2.90;99.90;;;;;;4043763;29;20192;-91
2021/03/08 05:36:27;;;;;;;44.67;22.00;;;2.80;99.90;;;;;;4042861;29;20181;-90
2021/03/08 05:38:32;;;;;;;43.60;22.10;;;2.80;99.90;;;;;;4044549;29;20213;-91
2021/03/08 05:40:38;;;;;;;43.43;21.87;;;2.40;99.90;;;;;;4043686;29;20284;-90
2021/03/08 05:42:39;;;;;;;47.33;22.43;;;2.30;99.90;;;;;;4043623;29;20182;-91
2021/03/08 05:45:05;;;;;;;45.40;22.60;;;2.10;99.90;;;;;;4057321;29;20197;-90
2021/03/08 05:47:47;;;;;;;43.10;21.37;;;2.20;99.90;;;;;;4042744;29;20181;-91
2021/03/08 05:50:18;;;;;;;40.03;21.27;;;2.40;99.90;;;;;;4033323;29;20209;-92
2021/03/08 05:52:33;;;;;;;46.13;22.47;;;2.40;99.90;;;;;;4058359;29;20233;-92
2021/03/08 05:55:01;;;;;;;43.17;21.20;;;2.50;99.90;;;;;;4060414;29;20387;-91
2021/03/08 05:57:34;;;;;;;44.90;22.30;;;2.60;99.90;;;;;;4057757;29;20656;-90
2021/03/08 06:00:04;;;;;;;46.83;21.37;;;2.30;99.90;;;;;;4058913;28;20240;-91
2021/03/08 06:02:58;;;;;;;43.43;21.00;;;2.40;99.90;;;;;;4059864;29;20173;-91
2021/03/08 06:04:58;;;;;;;44.03;21.43;;;2.60;99.90;;;;;;4042895;29;20193;-90
2021/03/08 06:07:32;;;;;;;45.77;23.30;;;2.70;99.90;;;;;;4042243;29;20272;-91
2021/03/08 06:09:56;;;;;;;47.03;21.57;;;2.70;99.90;;;;;;4057813;29;20219;-90
2021/03/08 06:12:06;;;;;;;44.03;21.80;;;2.70;99.90;;;;;;4042820;29;20193;-91
2021/03/08 06:14:09;;;;;;;44.30;22.90;;;2.60;99.90;;;;;;4044002;29;20209;-90
2021/03/08 06:16:20;;;;;;;48.47;22.83;;;2.60;99.90;;;;;;4042226;29;20190;-91
2021/03/08 06:18:23;;;;;;;42.33;22.20;;;2.60;99.90;;;;;;4042514;29;20547;-90
2021/03/08 06:20:24;;;;;;;49.70;23.27;;;2.60;99.90;;;;;;4043599;29;20221;-91
2021/03/08 06:22:25;;;;;;;45.60;23.50;;;2.50;99.90;;;;;;4057751;29;20587;-90
2021/03/08 06:24:26;;;;;;;48.20;24.37;;;2.40;99.90;;;;;;4043138;29;20277;-92
2021/03/08 06:26:28;;;;;;;46.33;24.10;;;2.40;99.90;;;;;;4042881;29;20539;-91
2021/03/08 06:28:30;;;;;;;47.80;23.60;;;2.40;99.90;;;;;;4043654;29;20225;-90
2021/03/08 06:30:31;;;;;;;50.53;24.90;;;2.60;99.90;;;;;;4045742;29;20209;-90
2021/03/08 06:32:32;;;;;;;59.17;25.50;;;2.70;99.90;;;;;;4058560;29;20195;-91
2021/03/08 06:34:33;;;;;;;42.93;22.20;;;2.80;99.90;;;;;;4044683;29;20195;-92
2021/03/08 06:36:36;;;;;;;39.17;19.83;;;2.90;99.90;;;;;;4061855;28;20216;-91
2021/03/08 06:38:37;;;;;;;41.10;21.43;;;3.10;99.90;;;;;;4045799;29;20348;-91
2021/03/08 06:40:38;;;;;;;38.00;20.90;;;3.20;99.90;;;;;;4045781;29;20209;-91
2021/03/08 06:42:39;;;;;;;45.03;21.90;;;3.20;99.90;;;;;;4044871;29;20201;-89
2021/03/08 06:44:40;;;;;;;43.30;23.00;;;3.20;99.90;;;;;;4045772;29;20189;-91
2021/03/08 06:46:40;;;;;;;41.10;22.17;;;3.30;99.90;;;;;;4045232;29;20226;-91
2021/03/08 06:48:42;;;;;;;45.90;20.57;;;3.30;99.90;;;;;;4060792;29;20213;-90
2021/03/08 06:50:44;;;;;;;43.47;22.30;;;3.20;99.90;;;;;;4045536;29;20222;-91
2021/03/08 06:52:46;;;;;;;47.93;23.70;;;3.10;99.90;;;;;;4047231;29;20233;-91
2021/03/08 06:55:02;;;;;;;51.10;23.87;;;3.20;99.90;;;;;;4045330;29;20273;-91
2021/03/08 06:57:22;;;;;;;46.93;23.57;;;3.50;99.90;;;;;;4045453;29;20258;-91
2021/03/08 06:59:23;;;;;;;46.13;22.23;;;3.80;99.90;;;;;;4044470;29;20233;-91
2021/03/08 07:01:31;;;;;;;47.83;22.90;;;3.90;99.90;;;;;;4043877;29;20185;-91
2021/03/08 07:03:33;;;;;;;41.60;23.03;;;4.30;99.90;;;;;;4043638;29;20241;-91
2021/03/08 07:05:34;;;;;;;45.17;22.93;;;4.70;99.90;;;;;;4045290;29;20266;-91
2021/03/08 07:07:56;;;;;;;42.60;22.50;;;5.20;99.90;;;;;;4060169;29;20648;-92
2021/03/08 07:09:56;;;;;;;39.33;21.97;;;5.90;99.90;;;;;;4043808;29;20189;-91
2021/03/08 07:12:07;;;;;;;42.07;23.47;;;6.30;99.90;;;;;;4043056;29;20252;-92
2021/03/08 07:14:23;;;;;;;45.40;21.70;;;6.80;99.90;;;;;;4044515;29;20258;-91
2021/03/08 07:16:41;;;;;;;41.50;22.63;;;7.30;99.90;;;;;;4047326;29;20241;-91
2021/03/08 07:18:43;;;;;;;42.33;21.27;;;8.00;99.90;;;;;;4042984;29;20213;-91
2021/03/08 07:20:44;;;;;;;36.93;20.93;;;8.60;99.90;;;;;;4046333;29;20280;-91
2021/03/08 07:22:55;;;;;;;38.70;22.30;;;9.30;99.90;;;;;;4062692;29;20271;-92
2021/03/08 07:24:56;;;;;;;36.30;21.43;;;10.10;99.90;;;;;;4045654;29;20713;-91
2021/03/08 07:26:59;;;;;;;38.03;21.53;;;10.70;99.90;;;;;;4059348;29;20169;-91
2021/03/08 07:29:13;;;;;;;34.47;21.37;;;11.30;99.90;;;;;;4043847;29;20310;-91
2021/03/08 07:31:38;;;;;;;39.23;21.90;;;11.70;99.90;;;;;;4057241;29;20292;-92
2021/03/08 07:33:40;;;;;;;37.13;22.57;;;12.20;99.90;;;;;;4058752;29;20249;-90
2021/03/08 07:35:49;;;;;;;41.83;22.70;;;12.40;99.90;;;;;;4078415;29;20181;-91
2021/03/08 07:37:53;;;;;;;39.77;22.97;;;12.80;99.90;;;;;;4058884;29;20191;-91
2021/03/08 07:39:56;;;;;;;39.50;22.42;;;13.00;99.90;;;;;;4074156;29;20216;-91
2021/03/08 07:42:01;;;;;;;36.28;21.98;;;13.00;99.90;;;;;;4073812;29;20188;-92
2021/03/08 07:44:08;;;;;;;39.73;24.23;;;12.50;99.90;;;;;;4055446;29;20282;-92
2021/03/08 07:46:29;;;;;;;40.38;24.35;;;12.30;99.90;;;;;;4058890;29;20624;-91
2021/03/08 07:48:30;;;;;;;40.97;24.65;;;12.30;99.90;;;;;;4057643;29;20188;-91
2021/03/08 07:50:31;;;;;;;38.38;25.33;;;12.30;99.90;;;;;;4073058;29;20219;-90
2021/03/08 07:52:33;;;;;;;40.97;25.30;;;12.40;99.90;;;;;;4059189;29;20220;-91
2021/03/08 07:54:53;;;;;;;47.75;26.00;;;11.90;99.90;;;;;;4059653;29;20220;-91
2021/03/08 07:58:58;;;;;;;44.50;26.23;;;12.10;99.90;;;;;;4070338;29;20287;-91
2021/03/08 08:01:01;;;;;;;43.50;25.95;;;12.00;99.90;;;;;;4040302;29;20181;-92
2021/03/08 08:03:02;;;;;;;44.97;26.45;;;12.30;99.90;;;;;;4040245;29;20573;-91
2021/03/08 08:05:04;;;;;;;46.40;26.30;;;12.70;99.90;;;;;;4040743;29;20184;-91
2021/03/08 08:07:08;;;;;;;45.40;28.15;;;13.10;99.90;;;;;;4040913;29;20246;-91
2021/03/08 08:09:10;;;;;;;42.13;26.25;;;13.60;99.90;;;;;;4040002;29;20193;-91
2021/03/08 08:11:12;;;;;;;42.90;26.92;;;14.20;99.90;;;;;;4040083;29;20174;-92
2021/03/08 08:13:14;;;;;;;45.45;26.80;;;14.60;99.90;;;;;;4040124;29;20213;-94
2021/03/08 08:15:17;;;;;;;49.05;27.35;;;14.90;99.90;;;;;;4040195;29;20189;-93
2021/03/08 08:17:21;;;;;;;50.15;29.75;;;15.30;99.90;;;;;;4039934;29;20185;-92
2021/03/08 08:19:24;;;;;;;49.53;28.45;;;15.50;99.90;;;;;;4040373;29;20748;-91
2021/03/08 08:21:26;;;;;;;48.72;29.08;;;15.50;99.90;;;;;;4040337;29;20182;-91
2021/03/08 08:23:31;;;;;;;47.15;30.20;;;15.80;99.90;;;;;;4040812;29;20184;-92
2021/03/08 08:25:32;;;;;;;46.80;30.58;;;15.70;99.90;;;;;;4041318;29;20573;-92
2021/03/08 08:27:33;;;;;;;55.08;31.52;;;16.10;99.90;;;;;;4039500;29;20191;-93
2021/03/08 08:29:34;;;;;;;45.72;30.67;;;15.70;99.90;;;;;;4039262;29;20312;-91
2021/03/08 08:31:57;;;;;;;49.88;30.80;;;14.50;99.90;;;;;;4023984;29;20252;-92
2021/03/08 08:33:58;;;;;;;47.50;31.15;;;14.50;99.90;;;;;;4039398;29;20197;-91
2021/03/08 08:36:08;;;;;;;49.88;31.67;;;15.40;99.90;;;;;;4039536;29;20230;-92
2021/03/08 08:38:18;;;;;;;49.42;32.83;;;15.40;99.90;;;;;;4039109;29;20239;-92
2021/03/08 08:40:18;;;;;;;54.13;31.45;;;16.00;99.90;;;;;;4039004;29;20212;-92
2021/03/08 08:42:24;;;;;;;46.00;31.25;;;16.50;99.90;;;;;;4023824;29;20186;-92
2021/03/08 08:44:28;;;;;;;53.53;33.17;;;16.10;99.90;;;;;;4038899;29;20574;-92
2021/03/08 08:46:29;;;;;;;47.08;32.30;;;17.00;99.90;;;;;;4039074;29;20217;-92
2021/03/08 08:48:30;;;;;;;56.38;35.00;;;17.30;99.90;;;;;;4039008;29;20197;-92
2021/03/08 08:50:52;;;;;;;47.90;33.42;;;17.20;99.90;;;;;;4023355;29;20214;-93
2021/03/08 08:52:56;;;;;;;41.17;28.42;;;17.50;99.90;;;;;;4039094;29;20189;-92
2021/03/08 08:54:57;;;;;;;55.03;36.10;;;17.00;99.90;;;;;;4038306;29;20194;-91
2021/03/08 08:57:19;;;;;;;52.55;33.90;;;17.00;99.90;;;;;;4038822;29;20766;-91
2021/03/08 08:59:21;;;;;;;58.25;33.65;;;16.90;99.90;;;;;;4038918;29;20312;-91
2021/03/08 09:03:58;;;;;;;56.63;34.08;;;16.40;99.90;;;;;;4054304;29;20192;-91
2021/03/08 09:05:58;;;;;;;54.03;31.58;;;16.00;99.90;;;;;;4038879;29;20284;-91
2021/03/08 09:08:30;;;;;;;54.58;33.28;;;15.70;99.90;;;;;;4039206;29;20188;-92
2021/03/08 09:10:34;;;;;;;58.70;34.97;;;15.30;99.90;;;;;;4012365;29;20221;-92
2021/03/08 09:12:37;;;;;;;58.22;34.92;;;14.70;99.90;;;;;;4038872;29;20276;-91
2021/03/08 09:14:52;;;;;;;57.17;35.60;;;14.90;99.90;;;;;;4039306;29;20193;-92
2021/03/08 09:17:26;;;;;;;56.03;32.83;;;13.90;99.90;;;;;;4039071;29;20215;-91
2021/03/08 09:19:27;;;;;;;55.00;33.95;;;13.90;99.90;;;;;;4038512;29;20313;-92
2021/03/08 09:21:27;;;;;;;50.30;31.15;;;13.70;99.90;;;;;;4038609;29;20185;-92
2021/03/08 09:23:28;;;;;;;53.03;32.37;;;13.30;99.90;;;;;;4023129;29;20198;-92
2021/03/08 09:25:31;;;;;;;54.28;32.47;;;13.70;99.90;;;;;;4038667;29;20268;-91
2021/03/08 09:27:34;;;;;;;51.47;33.30;;;14.00;99.90;;;;;;4038647;29;20694;-91
2021/03/08 09:29:35;;;;;;;58.73;34.23;;;14.00;99.90;;;;;;4038541;29;20642;-91
2021/03/08 09:31:36;;;;;;;50.97;31.47;;;13.50;99.90;;;;;;4038425;29;20649;-91
2021/03/08 09:33:37;;;;;;;48.97;31.73;;;13.30;99.90;;;;;;4038293;29;20192;-91
2021/03/08 09:35:42;;;;;;;53.37;31.40;;;12.80;99.90;;;;;;4023094;29;20182;-91
2021/03/08 09:37:49;;;;;;;53.47;31.87;;;12.30;99.90;;;;;;4038285;29;20186;-91
2021/03/08 09:39:52;;;;;;;58.07;31.00;;;12.30;99.90;;;;;;4038194;29;20609;-91
2021/03/08 09:41:54;;;;;;;51.27;29.30;;;10.90;99.90;;;;;;4038359;29;20205;-92
2021/03/08 09:43:57;;;;;;;45.30;27.37;;;10.50;99.90;;;;;;4038426;29;20217;-92
2021/03/08 09:46:07;;;;;;;49.83;27.33;;;10.90;99.90;;;;;;4038243;29;20615;-91
2021/03/08 09:48:07;;;;;;;41.20;24.43;;;12.00;99.90;;;;;;4038290;29;20185;-92
2021/03/08 09:50:09;;;;;;;39.03;21.65;;;11.60;99.90;;;;;;4038244;29;20582;-91
2021/03/08 09:52:10;;;;;;;35.53;18.10;;;10.70;99.90;;;;;;4038190;29;20217;-92
2021/03/08 09:54:10;;;;;;;35.90;19.33;;;9.20;99.90;;;;;;4038600;29;20197;-92
2021/03/08 09:56:15;;;;;;;40.53;22.83;;;8.30;99.90;;;;;;4023051;29;20234;-90
2021/03/08 09:58:19;;;;;;;37.67;21.37;;;8.70;99.90;;;;;;4037560;29;20229;-91
2021/03/08 10:00:23;;;;;;;31.50;17.70;;;9.00;99.90;;;;;;4038252;29;20300;-91
2021/03/08 10:02:25;;;;;;;34.00;19.53;;;10.40;99.90;;;;;;4038391;29;20203;-91
2021/03/08 10:04:26;;;;;;;35.20;18.93;;;10.50;99.90;;;;;;4038042;29;20204;-91
2021/03/08 10:06:32;;;;;;;30.77;17.97;;;10.50;99.90;;;;;;4038166;29;20181;-90
2021/03/08 10:08:32;;;;;;;37.77;19.87;;;10.90;99.90;;;;;;4053726;29;20790;-90
2021/03/08 10:10:39;;;;;;;38.13;21.17;;;11.40;99.90;;;;;;4038026;29;20295;-90
2021/03/08 10:12:41;;;;;;;32.47;12.77;;;11.00;99.90;;;;;;4038219;29;20193;-91
2021/03/08 10:14:41;;;;;;;27.43;14.83;;;9.00;99.90;;;;;;4038186;29;20688;-91
2021/03/08 10:16:42;;;;;;;30.77;15.83;;;8.20;99.90;;;;;;4038203;29;20221;-92
2021/03/08 10:18:42;;;;;;;31.00;15.97;;;8.20;99.90;;;;;;4022718;29;20230;-91
2021/03/08 10:20:50;;;;;;;36.83;16.13;;;8.00;99.90;;;;;;4038108;29;20213;-91
2021/03/08 10:22:52;;;;;;;24.97;13.57;;;8.40;99.90;;;;;;4038106;29;20185;-91
2021/03/08 10:24:53;;;;;;;26.73;14.57;;;8.50;99.90;;;;;;4022717;29;20186;-92
2021/03/08 10:26:53;;;;;;;31.63;18.20;;;8.00;99.90;;;;;;4037905;29;20653;-91
2021/03/08 10:28:55;;;;;;;38.20;18.73;;;8.10;99.90;;;;;;4037892;29;20194;-92
2021/03/08 10:30:58;;;;;;;37.30;19.97;;;8.40;99.90;;;;;;4037659;29;20197;-93
2021/03/08 10:33:17;;;;;;;35.97;18.63;;;8.70;99.90;;;;;;4037842;29;20190;-91
2021/03/08 10:35:19;;;;;;;32.17;18.60;;;9.30;99.90;;;;;;4037805;29;20193;-92
2021/03/08 10:37:20;;;;;;;34.50;18.83;;;9.40;99.90;;;;;;4024536;29;20627;-91
2021/03/08 10:39:22;;;;;;;33.30;17.83;;;9.30;99.90;;;;;;4039691;29;20709;-91
2021/03/08 10:41:25;;;;;;;34.90;18.13;;;8.70;99.90;;;;;;4022640;29;20182;-91
2021/03/08 10:43:28;;;;;;;33.27;19.00;;;8.30;99.90;;;;;;4037808;29;20170;-91
2021/03/08 10:45:29;;;;;;;39.57;19.53;;;8.10;99.90;;;;;;4037955;29;20587;-90
2021/03/08 10:47:29;;;;;;;32.40;18.17;;;8.10;99.90;;;;;;4022265;29;20564;-91